createdAt,value
2022-07-26T00:00:10.241Z,6.82
2022-07-26T00:02:37.177Z,7.40
2022-07-26T00:05:04.538Z,7.35
2022-07-26T00:07:36.577Z,6.97
2022-07-26T00:10:05.462Z,7.80
2022-07-26T00:12:33.332Z,7.35
2022-07-26T00:15:00.110Z,6.70
2022-07-26T00:17:27.923Z,7.95
2022-07-26T00:19:57.531Z,7.70
2022-07-26T00:22:36.312Z,7.30
2022-07-26T00:25:05.818Z,6.55
2022-07-26T00:27:36.235Z,6.40
2022-07-26T00:30:08.873Z,6.90
2022-07-26T00:32:36.387Z,7.10
2022-07-26T00:35:04.149Z,6.28
2022-07-26T00:37:30.906Z,6.53
2022-07-26T00:40:00.155Z,7.05
2022-07-26T00:42:27.109Z,5.78
2022-07-26T00:44:53.799Z,6.07
2022-07-26T00:47:20.451Z,5.65
2022-07-26T00:49:47.099Z,7.38
2022-07-26T00:52:14.002Z,6.53
2022-07-26T00:54:43.912Z,7.05
2022-07-26T00:57:10.739Z,6.93
2022-07-26T00:59:37.907Z,6.28
2022-07-26T01:02:05.735Z,7.15
2022-07-26T01:04:32.527Z,6.40
2022-07-26T01:06:59.620Z,6.55
2022-07-26T01:09:26.553Z,6.82
2022-07-26T01:11:53.419Z,7.25
2022-07-26T01:14:21.536Z,6.63
2022-07-26T01:16:48.238Z,6.90
2022-07-26T01:19:15.349Z,7.50
2022-07-26T01:21:42.036Z,6.13
2022-07-26T01:24:09.367Z,6.88
2022-07-26T01:26:36.505Z,6.88
2022-07-26T01:29:03.783Z,8.68
2022-07-26T01:31:30.608Z,9.13
2022-07-26T01:33:57.785Z,7.95
2022-07-26T01:36:24.440Z,7.78
2022-07-26T01:38:51.081Z,8.48
2022-07-26T01:41:17.887Z,8.63
2022-07-26T01:43:57.566Z,7.57
2022-07-26T01:46:24.920Z,9.27
2022-07-26T01:48:52.416Z,8.25
2022-07-26T01:51:22.078Z,7.60
2022-07-26T01:53:48.777Z,8.48
2022-07-26T01:56:17.085Z,7.28
2022-07-26T01:58:44.606Z,7.63
2022-07-26T02:01:11.354Z,7.85
2022-07-26T02:03:38.116Z,7.68
2022-07-26T02:06:05.369Z,7.80
2022-07-26T02:08:32.841Z,7.50
2022-07-26T02:11:00.495Z,7.18
2022-07-26T02:13:38.930Z,7.82
2022-07-26T02:16:08.801Z,6.45
2022-07-26T02:18:37.815Z,6.63
2022-07-26T02:21:05.868Z,7.43
2022-07-26T02:23:33.726Z,6.10
2022-07-26T02:26:00.699Z,7.22
2022-07-26T02:28:28.179Z,7.25
2022-07-26T02:30:55.038Z,6.30
2022-07-26T02:33:23.604Z,6.05
2022-07-26T02:35:50.421Z,5.72
2022-07-26T02:38:17.433Z,6.88
2022-07-26T02:40:44.380Z,6.57
2022-07-26T02:43:11.269Z,5.40
2022-07-26T02:45:38.403Z,6.68
2022-07-26T02:48:05.457Z,7.13
2022-07-26T02:50:32.145Z,6.65
2022-07-26T02:52:58.816Z,6.55
2022-07-26T02:55:26.316Z,6.50
2022-07-26T02:57:53.060Z,7.07
2022-07-26T03:00:23.492Z,6.50
2022-07-26T03:02:51.380Z,7.05
2022-07-26T03:05:18.610Z,7.93
2022-07-26T03:07:45.384Z,9.07
2022-07-26T03:10:12.073Z,8.60
2022-07-26T03:12:38.703Z,9.15
2022-07-26T03:15:06.066Z,10.25
2022-07-26T03:17:32.722Z,12.18
2022-07-26T03:19:59.440Z,10.57
2022-07-26T03:22:26.048Z,10.40
2022-07-26T03:24:52.747Z,11.02
2022-07-26T03:27:19.368Z,10.60
2022-07-26T03:29:46.072Z,12.10
2022-07-26T03:32:12.723Z,10.38
2022-07-26T03:34:39.352Z,11.07
2022-07-26T03:37:06.873Z,12.60
2022-07-26T03:39:33.495Z,11.65
2022-07-26T03:42:00.139Z,12.18
2022-07-26T03:44:26.758Z,11.95
2022-07-26T03:46:53.380Z,11.57
2022-07-26T03:49:20.082Z,12.20
2022-07-26T03:51:46.805Z,11.00
2022-07-26T03:54:13.578Z,11.05
2022-07-26T03:56:40.825Z,12.15
2022-07-26T03:59:09.228Z,11.25
2022-07-26T04:01:42.202Z,9.77
2022-07-26T04:04:09.943Z,10.18
2022-07-26T04:06:39.205Z,9.93
2022-07-26T04:09:06.540Z,10.50
2022-07-26T04:11:35.012Z,9.82
2022-07-26T04:14:01.637Z,10.57
2022-07-26T04:16:28.377Z,9.02
2022-07-26T04:18:55.167Z,8.18
2022-07-26T04:21:22.226Z,11.18
2022-07-26T04:23:51.338Z,9.80
2022-07-26T04:26:20.453Z,9.50
2022-07-26T04:28:47.469Z,8.77
2022-07-26T04:31:14.279Z,8.32
2022-07-26T04:33:41.010Z,7.63
2022-07-26T04:36:07.811Z,8.25
2022-07-26T04:38:34.472Z,7.85
2022-07-26T04:41:01.192Z,7.13
2022-07-26T04:43:27.862Z,7.70
2022-07-26T04:45:54.714Z,8.50
2022-07-26T04:48:21.384Z,7.97
2022-07-26T04:50:48.494Z,8.52
2022-07-26T04:53:15.325Z,7.53
2022-07-26T04:55:42.835Z,9.73
2022-07-26T04:58:09.790Z,9.35
2022-07-26T05:00:51.311Z,8.57
2022-07-26T05:03:25.205Z,9.80
2022-07-26T05:05:52.456Z,7.32
2022-07-26T05:08:19.297Z,7.60
2022-07-26T05:10:46.039Z,8.23
2022-07-26T05:13:12.722Z,8.38
2022-07-26T05:15:39.422Z,7.65
2022-07-26T05:18:10.644Z,7.57
2022-07-26T05:20:39.491Z,7.40
2022-07-26T05:23:06.300Z,8.25
2022-07-26T05:25:32.894Z,7.72
2022-07-26T05:27:59.608Z,7.75
2022-07-26T05:30:26.434Z,6.75
2022-07-26T05:32:53.207Z,6.88
2022-07-26T05:35:20.102Z,6.70
2022-07-26T05:37:46.926Z,7.43
2022-07-26T05:40:14.018Z,6.22
2022-07-26T05:42:40.817Z,5.85
2022-07-26T05:45:08.056Z,6.00
2022-07-26T05:47:34.707Z,5.50
2022-07-26T05:50:01.466Z,5.00
2022-07-26T05:52:28.206Z,4.80
2022-07-26T05:54:54.840Z,5.47
2022-07-26T05:57:21.488Z,5.47
2022-07-26T05:59:48.080Z,4.75
2022-07-26T06:02:14.844Z,4.88
2022-07-26T06:04:41.613Z,5.03
2022-07-26T06:07:08.403Z,4.70
2022-07-26T06:09:37.909Z,3.90
2022-07-26T06:12:06.233Z,3.72
2022-07-26T06:14:34.269Z,3.90
2022-07-26T06:17:01.316Z,4.35
2022-07-26T06:19:27.980Z,3.72
2022-07-26T06:21:54.618Z,3.40
2022-07-26T06:24:21.271Z,3.40
2022-07-26T06:26:54.745Z,3.63
2022-07-26T06:29:23.968Z,3.72
2022-07-26T06:31:58.994Z,4.05
2022-07-26T06:34:25.828Z,3.42
2022-07-26T06:36:52.431Z,3.13
2022-07-26T06:39:19.041Z,3.15
2022-07-26T06:41:45.663Z,3.60
2022-07-26T06:44:12.463Z,3.20
2022-07-26T06:46:39.255Z,3.78
2022-07-26T06:49:06.014Z,3.28
2022-07-26T06:51:33.976Z,3.15
2022-07-26T06:54:00.990Z,3.22
2022-07-26T06:56:27.956Z,2.90
2022-07-26T06:58:56.329Z,3.08
2022-07-26T07:01:57.811Z,3.17
2022-07-26T07:04:10.153Z,3.63
2022-07-26T07:06:37.119Z,2.53
2022-07-26T07:09:03.984Z,3.33
2022-07-26T07:11:35.258Z,3.80
2022-07-26T07:14:03.325Z,3.13
2022-07-26T07:16:30.364Z,3.08
2022-07-26T07:18:57.168Z,3.67
2022-07-26T07:21:23.771Z,3.65
2022-07-26T07:23:50.393Z,3.28
2022-07-26T07:26:17.134Z,3.00
2022-07-26T07:28:43.732Z,3.60
2022-07-26T07:31:10.392Z,3.13
2022-07-26T07:33:52.468Z,3.95
2022-07-26T07:36:20.350Z,3.17
2022-07-26T07:38:48.181Z,3.35
2022-07-26T07:41:14.833Z,2.75
2022-07-26T07:43:41.450Z,2.50
2022-07-26T07:46:08.282Z,2.83
2022-07-26T07:48:35.034Z,2.83
2022-07-26T07:51:01.777Z,3.20
2022-07-26T07:53:28.379Z,2.40
2022-07-26T07:55:57.573Z,2.90
2022-07-26T07:58:24.176Z,2.58
2022-07-26T08:00:50.791Z,2.83
2022-07-26T08:03:18.007Z,2.70
2022-07-26T08:05:46.697Z,2.80
2022-07-26T08:08:16.982Z,2.60
2022-07-26T08:10:52.041Z,2.67
2022-07-26T08:13:21.261Z,3.20
2022-07-26T08:15:49.490Z,2.75
2022-07-26T08:18:16.191Z,4.07
2022-07-26T08:20:43.657Z,2.30
2022-07-26T08:23:11.368Z,2.40
2022-07-26T08:25:50.082Z,2.47
2022-07-26T08:28:45.126Z,2.35
2022-07-26T08:31:09.443Z,2.63
2022-07-26T08:33:36.179Z,2.42
2022-07-26T08:36:07.597Z,1.90
2022-07-26T08:38:34.189Z,2.30
2022-07-26T08:41:00.882Z,2.30
2022-07-26T08:43:27.603Z,2.40
2022-07-26T08:46:00.218Z,2.10
2022-07-26T08:48:27.426Z,2.30
2022-07-26T08:50:55.607Z,2.60
2022-07-26T08:53:23.042Z,2.38
2022-07-26T08:56:06.313Z,1.92
2022-07-26T08:58:40.825Z,2.55
2022-07-26T09:01:12.076Z,2.20
2022-07-26T09:03:39.160Z,2.25
2022-07-26T09:06:28.101Z,2.72
2022-07-26T09:09:12.680Z,2.30
2022-07-26T09:11:40.596Z,1.98
2022-07-26T09:14:07.285Z,2.33
2022-07-26T09:16:38.663Z,1.90
2022-07-26T09:19:22.696Z,2.00
2022-07-26T09:21:49.935Z,1.77
2022-07-26T09:24:38.520Z,2.13
2022-07-26T09:27:06.317Z,2.45
2022-07-26T09:29:43.878Z,1.80
2022-07-26T09:32:19.269Z,1.98
2022-07-26T09:34:52.539Z,2.17
2022-07-26T09:37:33.581Z,2.40
2022-07-26T09:40:04.351Z,2.30
2022-07-26T09:42:31.075Z,1.90
2022-07-26T09:44:58.160Z,2.35
2022-07-26T09:47:40.968Z,1.98
2022-07-26T09:50:16.626Z,1.80
2022-07-26T09:53:07.383Z,2.20
2022-07-26T09:55:55.316Z,2.13
2022-07-26T09:58:23.079Z,2.15
2022-07-26T10:00:49.938Z,2.30
2022-07-26T10:03:16.695Z,1.98
2022-07-26T10:05:43.433Z,2.40
2022-07-26T10:08:10.418Z,2.17
2022-07-26T10:10:42.680Z,2.38
2022-07-26T10:13:10.314Z,2.17
2022-07-26T10:15:48.576Z,2.10
2022-07-26T10:18:38.047Z,2.30
2022-07-26T10:21:23.303Z,2.38
2022-07-26T10:24:01.450Z,2.75
2022-07-26T10:26:31.241Z,1.95
2022-07-26T10:29:15.790Z,2.47
2022-07-26T10:32:00.878Z,2.13
2022-07-26T10:34:31.933Z,2.20
2022-07-26T10:37:00.212Z,2.13
2022-07-26T10:39:27.156Z,2.30
2022-07-26T10:42:08.043Z,2.33
2022-07-26T10:44:39.141Z,2.20
2022-07-26T10:47:15.905Z,2.47
2022-07-26T10:49:57.730Z,2.40
2022-07-26T10:52:27.317Z,2.08
2022-07-26T10:54:56.977Z,2.10
2022-07-26T10:57:30.619Z,2.03
2022-07-26T11:02:32.367Z,1.88
2022-07-26T11:05:01.076Z,2.03
2022-07-26T11:07:28.860Z,2.30
2022-07-26T11:09:56.771Z,2.20
2022-07-26T11:12:24.089Z,2.05
2022-07-26T11:14:51.147Z,1.90
2022-07-26T11:17:28.778Z,1.98
2022-07-26T11:19:56.363Z,2.00
2022-07-26T11:22:32.114Z,2.10
2022-07-26T11:24:58.927Z,2.60
2022-07-26T11:27:25.665Z,1.92
2022-07-26T11:29:55.124Z,1.90
2022-07-26T11:32:25.326Z,2.38
2022-07-26T11:35:10.653Z,2.55
2022-07-26T11:37:37.879Z,2.28
2022-07-26T11:40:05.558Z,2.03
2022-07-26T11:42:32.917Z,2.20
2022-07-26T11:45:03.595Z,2.40
2022-07-26T11:47:31.352Z,2.47
2022-07-26T11:50:20.011Z,2.40
2022-07-26T11:52:53.816Z,2.30
2022-07-26T11:55:47.712Z,2.30
2022-07-26T11:58:14.609Z,2.35
2022-07-26T12:00:41.242Z,2.50
2022-07-26T12:03:07.896Z,2.80
2022-07-26T12:05:34.856Z,2.33
2022-07-26T12:08:04.280Z,2.42
2022-07-26T12:10:31.479Z,2.60
2022-07-26T12:13:15.504Z,2.42
2022-07-26T12:18:42.512Z,2.50
2022-07-26T12:21:09.759Z,2.97
2022-07-26T12:23:54.579Z,2.75
2022-07-26T12:26:26.747Z,2.60
2022-07-26T12:28:53.840Z,2.45
2022-07-26T12:31:24.579Z,2.35
2022-07-26T12:33:56.019Z,2.17
2022-07-26T12:36:27.135Z,2.13
2022-07-26T12:39:04.929Z,2.53
2022-07-26T12:41:42.617Z,1.95
2022-07-26T12:44:15.709Z,2.13
2022-07-26T12:46:46.587Z,2.22
2022-07-26T12:49:13.516Z,2.00
2022-07-26T12:51:40.662Z,2.30
2022-07-26T12:54:07.649Z,1.73
2022-07-26T12:56:34.582Z,1.83
2022-07-26T12:59:01.602Z,1.80
2022-07-26T13:01:29.740Z,1.45
2022-07-26T13:03:56.616Z,1.52
2022-07-26T13:06:23.671Z,1.15
2022-07-26T13:08:50.565Z,0.93
2022-07-26T13:11:17.298Z,1.48
2022-07-26T13:13:44.029Z,1.40
2022-07-26T13:16:12.375Z,1.20
2022-07-26T13:18:39.419Z,1.08
2022-07-26T13:21:06.259Z,1.00
2022-07-26T13:23:34.324Z,1.10
2022-07-26T13:26:02.850Z,1.13
2022-07-26T13:28:30.173Z,1.30
2022-07-26T13:30:56.928Z,0.93
2022-07-26T13:33:23.625Z,1.23
2022-07-26T13:35:51.025Z,1.40
2022-07-26T13:38:19.803Z,1.00
2022-07-26T13:40:46.842Z,1.30
2022-07-26T13:43:14.393Z,1.55
2022-07-26T13:45:51.466Z,0.90
2022-07-26T13:48:23.631Z,1.10
2022-07-26T13:50:50.457Z,1.88
2022-07-26T13:53:17.119Z,1.10
2022-07-26T13:55:44.626Z,1.23
2022-07-26T13:58:11.306Z,1.50
2022-07-26T14:00:40.508Z,1.10
2022-07-26T14:03:07.450Z,1.30
2022-07-26T14:05:37.091Z,1.15
2022-07-26T14:08:05.031Z,1.20
2022-07-26T14:10:32.965Z,1.08
2022-07-26T14:13:00.725Z,1.20
2022-07-26T14:15:27.681Z,1.05
2022-07-26T14:17:58.371Z,1.38
2022-07-26T14:20:27.183Z,1.35
2022-07-26T14:22:56.300Z,1.40
2022-07-26T14:25:24.134Z,1.20
2022-07-26T14:27:51.874Z,1.20
2022-07-26T14:30:18.954Z,1.52
2022-07-26T14:32:45.647Z,1.40
2022-07-26T14:35:13.628Z,1.40
2022-07-26T14:37:44.545Z,1.05
2022-07-26T14:40:17.875Z,1.25
2022-07-26T14:42:45.935Z,1.42
2022-07-26T14:45:12.993Z,1.13
2022-07-26T14:47:39.681Z,1.30
2022-07-26T14:50:08.111Z,1.20
2022-07-26T14:52:40.238Z,1.10
2022-07-26T14:55:07.983Z,1.13
2022-07-26T14:57:39.036Z,1.45
2022-07-26T15:00:11.816Z,1.13
2022-07-26T15:02:48.883Z,1.10
2022-07-26T15:05:16.927Z,1.42
2022-07-26T15:07:47.753Z,1.20
2022-07-26T15:10:15.294Z,1.20
2022-07-26T15:12:42.736Z,1.38
2022-07-26T15:15:10.688Z,1.27
2022-07-26T15:17:42.841Z,1.13
2022-07-26T15:20:10.534Z,1.10
2022-07-26T15:22:37.230Z,1.00
2022-07-26T15:25:05.431Z,0.98
2022-07-26T15:27:32.590Z,0.98
2022-07-26T15:30:04.249Z,1.25
2022-07-26T15:32:33.502Z,1.08
2022-07-26T15:35:01.060Z,0.95
2022-07-26T15:37:27.989Z,0.90
2022-07-26T15:39:54.728Z,1.17
2022-07-26T15:42:23.198Z,0.93
2022-07-26T15:44:50.852Z,1.10
2022-07-26T15:47:43.413Z,0.98
2022-07-26T15:50:07.745Z,1.10
2022-07-26T15:52:41.231Z,1.00
2022-07-26T15:55:19.725Z,1.30
2022-07-26T15:57:52.148Z,1.02
2022-07-26T16:00:25.726Z,0.98
2022-07-26T16:02:55.949Z,0.95
2022-07-26T16:05:24.640Z,1.10
2022-07-26T16:07:53.892Z,1.42
2022-07-26T16:10:24.164Z,0.98
2022-07-26T16:13:00.165Z,0.90
2022-07-26T16:15:31.202Z,1.00
2022-07-26T16:18:02.954Z,0.90
2022-07-26T16:20:33.782Z,1.00
2022-07-26T16:23:00.818Z,0.88
2022-07-26T16:25:27.495Z,1.00
2022-07-26T16:27:54.182Z,1.05
2022-07-26T16:30:38.715Z,0.90
2022-07-26T16:33:29.716Z,0.98
2022-07-26T16:36:23.835Z,0.93
2022-07-26T16:38:58.520Z,0.80
2022-07-26T16:41:25.698Z,1.00
2022-07-26T16:43:55.911Z,1.08
2022-07-26T16:46:23.248Z,0.93
2022-07-26T16:48:50.096Z,0.88
2022-07-26T16:51:16.897Z,0.80
2022-07-26T16:53:43.551Z,0.85
2022-07-26T16:56:11.730Z,0.70
2022-07-26T16:58:39.280Z,0.88
2022-07-26T17:01:06.747Z,1.25
2022-07-26T17:03:35.781Z,0.77
2022-07-26T17:06:06.753Z,0.90
2022-07-26T17:08:33.790Z,1.17
2022-07-26T17:11:00.844Z,0.70
2022-07-26T17:13:29.647Z,0.80
2022-07-26T17:15:57.748Z,0.70
2022-07-26T17:18:26.066Z,1.35
2022-07-26T17:20:52.752Z,0.70
2022-07-26T17:23:19.594Z,0.70
2022-07-26T17:25:46.857Z,0.70
2022-07-26T17:28:13.980Z,1.15
2022-07-26T17:30:40.783Z,0.90
2022-07-26T17:33:09.365Z,0.80
2022-07-26T17:35:37.124Z,0.80
2022-07-26T17:38:04.490Z,0.60
2022-07-26T17:40:31.753Z,0.80
2022-07-26T17:42:59.302Z,0.77
2022-07-26T17:45:26.560Z,0.90
2022-07-26T17:47:54.610Z,0.60
2022-07-26T17:50:38.027Z,0.80
2022-07-26T17:55:32.371Z,0.93
2022-07-26T17:57:59.071Z,0.98
2022-07-26T18:00:29.012Z,0.93
2022-07-26T18:02:56.932Z,0.73
2022-07-26T18:05:29.954Z,0.80
2022-07-26T18:08:00.583Z,0.82
2022-07-26T18:10:28.554Z,0.80
2022-07-26T18:12:55.613Z,1.00
2022-07-26T18:15:22.493Z,0.80
2022-07-26T18:17:50.547Z,0.80
2022-07-26T18:20:17.249Z,0.80
2022-07-26T18:22:45.943Z,0.73
2022-07-26T18:25:18.685Z,0.80
2022-07-26T18:28:16.843Z,0.80
2022-07-26T18:33:28.099Z,0.73
2022-07-26T18:36:00.887Z,0.68
2022-07-26T18:38:27.919Z,0.93
2022-07-26T18:40:56.136Z,0.90
2022-07-26T18:43:26.597Z,1.15
2022-07-26T18:45:59.275Z,0.80
2022-07-26T18:48:32.029Z,0.98
2022-07-26T18:51:20.341Z,1.17
2022-07-26T18:53:52.856Z,0.80
2022-07-26T18:56:41.026Z,0.93
2022-07-26T18:59:12.880Z,0.80
2022-07-26T19:01:42.278Z,1.00
2022-07-26T19:04:12.715Z,0.93
2022-07-26T19:06:40.195Z,1.00
2022-07-26T19:09:07.058Z,1.52
2022-07-26T19:11:36.342Z,0.95
2022-07-26T19:14:05.516Z,1.10
2022-07-26T19:16:32.772Z,1.23
2022-07-26T19:19:01.404Z,1.10
2022-07-26T19:21:28.166Z,1.10
2022-07-26T19:23:56.186Z,1.00
2022-07-26T19:26:25.210Z,1.20
2022-07-26T19:28:58.566Z,1.15
2022-07-26T19:31:42.937Z,1.02
2022-07-26T19:34:23.781Z,1.17
2022-07-26T19:36:55.268Z,1.00
2022-07-26T19:39:23.363Z,1.30
2022-07-26T19:41:50.960Z,1.35
2022-07-26T19:44:17.854Z,1.40
2022-07-26T19:46:44.913Z,1.42
2022-07-26T19:49:12.808Z,1.65
2022-07-26T19:51:39.964Z,1.00
2022-07-26T19:54:06.642Z,1.30
2022-07-26T19:56:33.495Z,1.23
2022-07-26T19:59:00.468Z,1.30
2022-07-26T20:01:28.483Z,1.27
2022-07-26T20:03:56.110Z,1.40
2022-07-26T20:06:23.500Z,1.40
2022-07-26T20:08:50.564Z,1.38
2022-07-26T20:11:22.700Z,1.80
2022-07-26T20:13:49.753Z,1.52
2022-07-26T20:16:17.495Z,1.58
2022-07-26T20:18:44.146Z,1.55
2022-07-26T20:21:13.746Z,1.80
2022-07-26T20:23:44.157Z,1.55
2022-07-26T20:26:13.516Z,1.65
2022-07-26T20:28:41.572Z,1.88
2022-07-26T20:31:08.531Z,1.52
2022-07-26T20:33:35.238Z,1.67
2022-07-26T20:36:01.853Z,1.40
2022-07-26T20:38:28.561Z,1.20
2022-07-26T20:40:55.931Z,1.60
2022-07-26T20:43:24.207Z,1.40
2022-07-26T20:45:53.840Z,1.92
2022-07-26T20:48:20.639Z,2.30
2022-07-26T20:50:47.283Z,1.30
2022-07-26T20:53:13.962Z,1.40
2022-07-26T20:55:40.576Z,1.33
2022-07-26T20:58:07.201Z,1.70
2022-07-26T21:00:33.860Z,1.60
2022-07-26T21:03:01.077Z,1.50
2022-07-26T21:05:32.327Z,1.55
2022-07-26T21:08:00.141Z,1.58
2022-07-26T21:10:29.322Z,1.52
2022-07-26T21:13:01.494Z,1.80
2022-07-26T21:15:29.865Z,1.20
2022-07-26T21:17:56.916Z,1.42
2022-07-26T21:20:23.546Z,1.60
2022-07-26T21:22:50.316Z,1.48
2022-07-26T21:25:17.077Z,1.73
2022-07-26T21:27:43.909Z,1.50
2022-07-26T21:30:11.668Z,1.80
2022-07-26T21:32:38.307Z,1.77
2022-07-26T21:35:05.550Z,1.60
2022-07-26T21:37:32.325Z,1.88
2022-07-26T21:40:00.708Z,1.55
2022-07-26T21:42:28.024Z,1.58
2022-07-26T21:44:54.810Z,1.67
2022-07-26T21:47:22.055Z,2.03
2022-07-26T21:49:50.907Z,1.63
2022-07-26T21:52:17.707Z,2.05
2022-07-26T21:54:44.433Z,1.50
2022-07-26T21:57:11.140Z,1.52
2022-07-26T21:59:37.781Z,1.55
2022-07-26T22:02:04.509Z,1.90
2022-07-26T22:04:31.270Z,1.80
2022-07-26T22:06:57.966Z,1.67
2022-07-26T22:09:33.775Z,2.15
2022-07-26T22:12:00.777Z,1.58
2022-07-26T22:14:27.376Z,1.98
2022-07-26T22:16:54.042Z,2.35
2022-07-26T22:19:20.823Z,2.30
2022-07-26T22:21:47.436Z,2.17
2022-07-26T22:24:14.037Z,1.92
2022-07-26T22:26:42.109Z,2.08
2022-07-26T22:29:09.769Z,1.92
2022-07-26T22:31:36.616Z,1.83
2022-07-26T22:34:03.423Z,1.90
2022-07-26T22:36:30.069Z,1.95
2022-07-26T22:39:03.331Z,2.13
2022-07-26T22:41:32.615Z,1.88
2022-07-26T22:44:00.588Z,1.90
2022-07-26T22:46:27.805Z,2.10
2022-07-26T22:48:56.169Z,1.88
2022-07-26T22:51:22.813Z,2.00
2022-07-26T22:53:49.497Z,2.10
2022-07-26T22:56:19.659Z,2.20
2022-07-26T22:58:46.770Z,2.08
2022-07-26T23:01:13.742Z,1.85
2022-07-26T23:03:41.141Z,2.47
2022-07-26T23:06:14.921Z,1.85
2022-07-26T23:08:56.532Z,2.20
2022-07-26T23:11:23.615Z,1.65
2022-07-26T23:13:50.255Z,2.00
2022-07-26T23:16:25.416Z,2.00
2022-07-26T23:18:52.886Z,2.13
2022-07-26T23:21:19.579Z,2.00
2022-07-26T23:23:46.413Z,1.88
2022-07-26T23:26:13.247Z,2.25
2022-07-26T23:28:39.893Z,1.80
2022-07-26T23:31:11.510Z,2.10
2022-07-26T23:33:52.441Z,1.50
2022-07-26T23:36:27.602Z,1.95
2022-07-26T23:39:05.774Z,1.90
2022-07-26T23:41:32.553Z,2.03
2022-07-26T23:43:59.234Z,2.15
2022-07-26T23:46:26.523Z,1.75
2022-07-26T23:48:54.210Z,1.70
2022-07-26T23:51:23.058Z,2.05
2022-07-26T23:53:50.347Z,1.60
2022-07-26T23:56:17.532Z,1.80
2022-07-26T23:58:44.771Z,2.65
